Terminal Aerodrome Forecast
Issued by NWS

Home | Current Version | Previous Version | Text Only | Print | Product List | Glossary On
Versions: 1 2 3 4 5 6 7 8 9 10 11 12 13 14 15 16 17 18 19 20 21 22 23 24 25 26 27 28 29 30
000
FTUS41 KBTV 260522
TAFPBG
TAF
KPBG 260522Z 2606/2706 26005KT P6SM FEW060 OVC150
     FM261700 09004KT P6SM OVC080
     FM262200 01005KT 1 1/2SM -SN BR OVC015
     FM270400 35008KT P6SM OVC008=

USA.gov is the U.S. government's official web portal to all federal, state and local government web resources and services.